Savannah, GA (31406)

1:33 PM EDT on October 02, 2014 (GMT -0400)
Halcyon Bluff II | Change Station
CLOSE
Current Station
Personal Weather Station
Location: Savannah, GA
Elevation: 20 ft
Nearby Weather Stations

Elev 20 ft 31.98 °N, 81.11 °W | Updated 1 second ago

Clear
Clear
79.9 °F
Feels Like 83 °F
N
0.0
Wind Variable Wind from ESE
Gusts 3.0 mph

Today
High -- | Low -- °F
--% Chance of Precip.
Yesterday
High -- | Low -- °F
Precip. -- in
7:18 AM 7:07 PM
First Quarter, 60% visible
Pressure 30.09 in
Visibility 10.0 miles
Clouds Few 3800 ft
Heat Index 83 °F
Dew Point 71 °F
Humidity 74%
Rainfall 0.00 in
Snow Depth Not available.
UV 9 out of 12
Pollen 6.60 out of 12
Air Quality Not available.
Flu Activity Not available.
METAR KSVN 021658Z AUTO 08008KT 10SM FEW038 29/19 A3008 RMK AO2 SLP189 T02860192

More Conditions Fewer Conditions

Pressure 30.09 in
Visibility 10.0 miles
Clouds Few 3800 ft
Heat Index 83 °F
Dew Point 71 °F
Humidity 74%
Rainfall 0.00 in
Snow Depth Not available.
UV 9 out of 12
Pollen 6.60 out of 12
Air Quality Not available.
Flu Activity Not available.
METAR KSVN 021658Z AUTO 08008KT 10SM FEW038 29/19 A3008 RMK AO2 SLP189 T02860192

More Conditions Fewer Conditions

10-Day Weather Forecast

Almanac

Astronomy

Oct. 02, 2014 Rise Set
Actual Time 7:18 AM EDT 7:07 PM EDT
Civil Twilight 6:54 AM EDT 7:32 PM EDT
Nautical Twilight 6:26 AM EDT 8:00 PM EDT
Astronomical Twilight 5:57 AM EDT 8:28 PM EDT
Moon 2:54 PM EDT 12:53 AM EDT
Length of Visible Light 12h 37m
Length of Day
11h 49m
Tomorrow will be 1m 56s shorter.
First Quarter, 60% of the Moon is Illuminated
Today
First Quarter
Oct 8
Full
Oct 15
Last Quarter
Oct 23
New
Oct 30
First Quarter

Today's Extremes

State Highs State Lows

Community

WunderPhotos

Upload Photos

1,758,305 photos uploaded!

Nearby

Snow Depth

Station Depth Elevation
No new snow has been reported.

Earthquake Activity

City Distance Mag. Time & Date
No recent earthquake activity has been reported nearby.
Minimum magnitude displayed is 2.5.

Coastal Water Temperatures

Place Temperature
No Stations Reporting

Nearby Weather Stations